Time;durP1;ratioP1;P1;durP2;ratioP2;P2;SDS_P1;SDS_P2;PMS_P1;PMS_P2;Temp;Humidity;BMP_temperature;BMP_pressure;BME280_temperature;BME280_humidity;BME280_pressure;Samples;Min_cycle;Max_cycle;Signal;HPM_P1;HPM_P2
2023/06/29 00:00:21;;;;;;;17.92;10.27;;;13.00;99.90;;;;;;5118290;28;20031;-65
2023/06/29 00:02:48;;;;;;;13.25;9.63;;;13.10;99.90;;;;;;5117483;28;20035;-65
2023/06/29 00:05:14;;;;;;;16.58;10.75;;;13.10;99.90;;;;;;5117891;28;20028;-65
2023/06/29 00:07:40;;;;;;;20.40;10.40;;;13.10;99.90;;;;;;5117975;28;20032;-65
2023/06/29 00:10:08;;;;;;;17.73;9.73;;;13.10;99.90;;;;;;5117716;28;20482;-65
2023/06/29 00:12:34;;;;;;;17.35;9.25;;;13.00;99.90;;;;;;5120158;27;20023;-65
2023/06/29 00:15:00;;;;;;;20.75;10.98;;;12.90;99.90;;;;;;5138495;27;20437;-65
2023/06/29 00:17:25;;;;;;;19.05;10.65;;;12.90;99.90;;;;;;5138313;27;20042;-66
2023/06/29 00:19:51;;;;;;;20.55;9.88;;;12.90;99.90;;;;;;5138234;27;20031;-65
2023/06/29 00:22:18;;;;;;;20.98;10.80;;;12.90;99.90;;;;;;5138525;27;20586;-65
2023/06/29 00:24:52;;;;;;;26.05;11.20;;;12.90;99.90;;;;;;5138350;27;20111;-65
2023/06/29 00:27:17;;;;;;;19.90;11.02;;;12.90;99.90;;;;;;5138088;27;20388;-65
2023/06/29 00:29:43;;;;;;;21.83;10.30;;;12.80;99.90;;;;;;5138158;27;20031;-65
2023/06/29 00:32:10;;;;;;;20.05;10.82;;;12.80;99.90;;;;;;5137781;27;20015;-66
2023/06/29 00:34:36;;;;;;;24.08;11.73;;;12.80;99.90;;;;;;5137993;27;20046;-65
2023/06/29 00:37:02;;;;;;;21.73;10.73;;;12.80;99.90;;;;;;5119705;27;20034;-65
2023/06/29 00:39:28;;;;;;;19.98;10.45;;;12.80;99.90;;;;;;5119478;27;20388;-65
2023/06/29 00:41:55;;;;;;;22.13;10.60;;;12.70;99.90;;;;;;5137991;27;20030;-65
2023/06/29 00:44:22;;;;;;;18.95;9.90;;;12.70;99.90;;;;;;5138168;27;20030;-65
2023/06/29 00:46:49;;;;;;;23.92;10.13;;;12.70;99.90;;;;;;5137749;27;20429;-65
2023/06/29 00:49:19;;;;;;;24.58;10.48;;;12.70;99.90;;;;;;5119239;27;20106;-65
2023/06/29 00:51:50;;;;;;;21.63;10.25;;;12.60;99.90;;;;;;5137748;27;20050;-65
2023/06/29 00:54:18;;;;;;;20.65;10.35;;;12.60;99.90;;;;;;5137555;27;20516;-65
2023/06/29 00:56:45;;;;;;;19.73;10.90;;;12.60;99.90;;;;;;5119249;27;20102;-65
2023/06/29 00:59:14;;;;;;;18.80;11.23;;;12.60;99.90;;;;;;5119246;27;20450;-65
2023/06/29 01:01:40;;;;;;;21.48;11.77;;;12.50;99.90;;;;;;5137438;27;20027;-65
2023/06/29 01:04:08;;;;;;;22.20;10.93;;;12.50;99.90;;;;;;5119082;27;20039;-65
2023/06/29 01:06:44;;;;;;;29.20;10.80;;;12.50;99.90;;;;;;5119109;27;20027;-65
2023/06/29 01:09:11;;;;;;;28.50;11.63;;;12.50;99.90;;;;;;5118840;27;20038;-65
2023/06/29 01:11:38;;;;;;;23.83;11.43;;;12.50;99.90;;;;;;5137404;27;20019;-65
2023/06/29 01:14:08;;;;;;;19.58;11.90;;;12.50;99.90;;;;;;5122011;27;20176;-65
2023/06/29 01:16:35;;;;;;;27.23;13.27;;;12.50;99.90;;;;;;5116473;28;20108;-65
2023/06/29 01:19:04;;;;;;;25.95;13.50;;;12.60;99.90;;;;;;5116674;28;20035;-65
2023/06/29 01:21:35;;;;;;;22.13;12.90;;;12.50;99.90;;;;;;5116704;28;20370;-66
2023/06/29 01:24:03;;;;;;;23.63;12.60;;;12.60;99.90;;;;;;5098251;28;20035;-65
2023/06/29 01:26:29;;;;;;;20.27;12.73;;;12.60;99.90;;;;;;5116582;28;20035;-65
2023/06/29 01:28:56;;;;;;;25.27;13.40;;;12.60;99.90;;;;;;5116494;28;20053;-65
2023/06/29 01:31:26;;;;;;;30.05;12.88;;;12.50;99.90;;;;;;5116441;28;20110;-65
2023/06/29 01:33:54;;;;;;;30.17;14.23;;;12.60;99.90;;;;;;5116485;28;20039;-65
2023/06/29 01:36:37;;;;;;;27.17;14.20;;;12.60;99.90;;;;;;5116373;28;20054;-65
2023/06/29 01:39:16;;;;;;;26.90;15.30;;;12.60;99.90;;;;;;5116261;28;20036;-65
2023/06/29 01:41:44;;;;;;;27.95;15.52;;;12.60;99.90;;;;;;5116367;28;20027;-65
2023/06/29 01:44:15;;;;;;;31.02;16.33;;;12.60;99.90;;;;;;5115294;28;20366;-65
2023/06/29 01:46:42;;;;;;;34.55;18.13;;;12.70;99.90;;;;;;5097982;28;20027;-65
2023/06/29 01:49:08;;;;;;;37.95;18.60;;;12.80;99.90;;;;;;5115970;28;20043;-66
2023/06/29 01:51:34;;;;;;;39.35;20.45;;;13.00;99.90;;;;;;5115760;28;20031;-65
2023/06/29 01:54:01;;;;;;;36.03;19.25;;;13.00;99.90;;;;;;5115952;28;20453;-66
2023/06/29 01:56:27;;;;;;;38.53;18.40;;;13.00;99.90;;;;;;5097633;28;20362;-65
2023/06/29 01:58:53;;;;;;;35.75;20.20;;;13.10;99.90;;;;;;5097451;28;20494;-65
2023/06/29 02:01:19;;;;;;;39.55;20.02;;;13.20;99.90;;;;;;5097531;28;20114;-66
2023/06/29 02:03:45;;;;;;;39.28;19.88;;;13.00;99.90;;;;;;5115835;28;20070;-66
2023/06/29 02:06:12;;;;;;;37.67;20.40;;;13.00;99.90;;;;;;5097311;28;20028;-66
2023/06/29 02:08:38;;;;;;;33.33;19.52;;;13.10;99.90;;;;;;5115714;28;20031;-66
2023/06/29 02:11:06;;;;;;;32.72;20.00;;;13.10;99.90;;;;;;5097157;28;20027;-66
2023/06/29 02:13:32;;;;;;;34.65;18.45;;;13.20;99.90;;;;;;5107752;27;20027;-66
2023/06/29 02:15:58;;;;;;;34.15;19.27;;;13.20;99.90;;;;;;5116228;27;20027;-65
2023/06/29 02:18:24;;;;;;;32.13;20.27;;;13.10;99.90;;;;;;5097273;28;20024;-65
2023/06/29 02:20:50;;;;;;;37.90;20.25;;;13.20;99.90;;;;;;5115336;28;20032;-66
2023/06/29 02:23:16;;;;;;;39.08;20.88;;;13.20;99.90;;;;;;5097152;28;20251;-66
2023/06/29 02:25:41;;;;;;;41.15;20.65;;;13.30;99.90;;;;;;5097028;28;20028;-66
2023/06/29 02:28:07;;;;;;;39.13;19.98;;;13.40;99.90;;;;;;5115242;28;20035;-66
2023/06/29 02:30:33;;;;;;;41.53;19.75;;;13.30;99.90;;;;;;5115207;28;20066;-66
2023/06/29 02:32:59;;;;;;;44.42;20.65;;;13.40;99.90;;;;;;5115203;28;20032;-65
2023/06/29 02:35:25;;;;;;;39.40;21.30;;;13.40;99.90;;;;;;5097013;28;20118;-65
2023/06/29 02:37:51;;;;;;;44.15;21.48;;;13.40;99.90;;;;;;5096919;28;20451;-65
2023/06/29 02:40:17;;;;;;;40.22;21.23;;;13.40;99.90;;;;;;5096663;28;20550;-66
2023/06/29 02:42:43;;;;;;;36.15;22.13;;;13.30;99.90;;;;;;5115062;28;20031;-66
2023/06/29 02:45:10;;;;;;;57.53;23.60;;;13.10;99.90;;;;;;5115154;28;20544;-66
2023/06/29 02:47:37;;;;;;;46.70;26.20;;;13.10;99.90;;;;;;5096787;28;20027;-66
2023/06/29 02:50:03;;;;;;;44.03;24.42;;;13.10;99.90;;;;;;5096477;28;20180;-66
2023/06/29 02:52:37;;;;;;;46.63;25.65;;;13.10;99.90;;;;;;5096760;28;20051;-66
2023/06/29 02:55:04;;;;;;;44.35;24.35;;;13.10;99.90;;;;;;5096479;28;20023;-66
2023/06/29 02:57:30;;;;;;;41.20;22.23;;;13.20;99.90;;;;;;5096650;28;20146;-66
2023/06/29 02:59:56;;;;;;;41.25;23.08;;;13.30;99.90;;;;;;5114975;28;20508;-66
2023/06/29 03:02:22;;;;;;;38.42;22.77;;;13.30;99.90;;;;;;5096573;28;20119;-65
2023/06/29 03:04:47;;;;;;;38.75;22.05;;;13.40;99.90;;;;;;5114809;28;20431;-65
2023/06/29 03:07:13;;;;;;;35.35;21.27;;;13.30;99.90;;;;;;5114878;28;20042;-65
2023/06/29 03:09:39;;;;;;;37.65;22.05;;;13.40;99.90;;;;;;5114390;28;20035;-65
2023/06/29 03:12:06;;;;;;;36.67;21.70;;;13.40;99.90;;;;;;5114815;28;20393;-65
2023/06/29 03:14:32;;;;;;;36.03;21.20;;;13.40;99.90;;;;;;5114554;28;20028;-66
2023/06/29 03:16:58;;;;;;;34.00;21.33;;;13.40;99.90;;;;;;5124085;28;20484;-66
2023/06/29 03:19:24;;;;;;;36.83;21.85;;;13.40;99.90;;;;;;5135332;28;20103;-66
2023/06/29 03:21:50;;;;;;;39.60;21.83;;;13.40;99.90;;;;;;5135225;28;20023;-65
2023/06/29 03:24:16;;;;;;;37.13;21.95;;;13.30;99.90;;;;;;5135129;28;20814;-65
2023/06/29 03:26:41;;;;;;;35.83;20.88;;;13.40;99.90;;;;;;5135370;28;20111;-65
2023/06/29 03:29:07;;;;;;;33.55;20.75;;;13.40;99.90;;;;;;5135257;28;20027;-65
2023/06/29 03:31:33;;;;;;;34.40;20.70;;;13.50;99.90;;;;;;5135019;28;20015;-65
2023/06/29 03:34:00;;;;;;;35.53;20.02;;;13.50;99.90;;;;;;5135399;28;20476;-65
2023/06/29 03:36:26;;;;;;;37.08;20.67;;;13.50;99.90;;;;;;5135225;27;20110;-65
2023/06/29 03:38:52;;;;;;;34.45;19.70;;;13.50;99.90;;;;;;5134944;28;20047;-65
2023/06/29 03:41:18;;;;;;;33.90;19.92;;;13.50;99.90;;;;;;5135065;28;20375;-65
2023/06/29 03:43:44;;;;;;;38.60;20.95;;;13.50;99.90;;;;;;5135083;28;20330;-66
2023/06/29 03:46:09;;;;;;;41.78;21.88;;;13.60;99.90;;;;;;5135007;28;20515;-66
2023/06/29 03:48:36;;;;;;;38.70;20.35;;;13.50;99.90;;;;;;5135030;28;20565;-66
2023/06/29 03:51:02;;;;;;;39.42;22.30;;;13.40;99.90;;;;;;5134955;28;20031;-66
2023/06/29 03:53:28;;;;;;;43.03;21.40;;;13.40;99.90;;;;;;5134826;28;20031;-66
2023/06/29 03:55:54;;;;;;;43.65;21.35;;;13.50;99.90;;;;;;5135128;28;20031;-66
2023/06/29 03:58:19;;;;;;;47.20;22.98;;;13.50;99.90;;;;;;5134945;28;20039;-66
2023/06/29 04:00:45;;;;;;;41.67;21.60;;;13.40;99.90;;;;;;5134862;28;20042;-66
2023/06/29 04:03:11;;;;;;;47.40;24.17;;;13.30;99.90;;;;;;5135072;28;20027;-65
2023/06/29 04:05:37;;;;;;;60.38;21.90;;;13.30;99.90;;;;;;5135003;28;20045;-65
2023/06/29 04:08:05;;;;;;;37.30;21.13;;;13.30;99.90;;;;;;5137352;27;20040;-66
2023/06/29 04:10:34;;;;;;;48.42;26.00;;;13.30;99.90;;;;;;5138557;27;20031;-66
2023/06/29 04:13:01;;;;;;;62.97;25.63;;;13.40;99.90;;;;;;5132391;27;20085;-65
2023/06/29 04:15:26;;;;;;;82.55;26.50;;;13.30;99.90;;;;;;5117845;28;20478;-66
2023/06/29 04:17:53;;;;;;;70.88;23.70;;;13.10;99.90;;;;;;5117713;28;20126;-66
2023/06/29 04:20:19;;;;;;;98.65;23.50;;;12.80;99.90;;;;;;5117805;28;20028;-66
2023/06/29 04:22:44;;;;;;;44.58;23.65;;;12.60;99.90;;;;;;5117792;28;20035;-66
2023/06/29 04:25:11;;;;;;;46.17;23.52;;;12.90;99.90;;;;;;5117787;28;20488;-66
2023/06/29 04:27:36;;;;;;;48.50;25.30;;;13.10;99.90;;;;;;5117764;28;20520;-66
2023/06/29 04:30:03;;;;;;;47.08;25.25;;;13.10;99.90;;;;;;5117430;28;20149;-66
2023/06/29 04:32:30;;;;;;;49.85;21.27;;;13.10;99.90;;;;;;5117644;28;20024;-66
2023/06/29 04:34:56;;;;;;;37.50;21.85;;;13.10;99.90;;;;;;5117485;28;20115;-66
2023/06/29 04:37:22;;;;;;;47.10;23.35;;;13.20;99.90;;;;;;5117530;28;20051;-66
2023/06/29 04:39:48;;;;;;;40.90;24.30;;;13.30;99.90;;;;;;5117432;28;20473;-66
2023/06/29 04:42:16;;;;;;;49.15;24.63;;;13.30;99.90;;;;;;5117242;28;20024;-66
2023/06/29 04:44:44;;;;;;;45.75;25.35;;;13.40;99.90;;;;;;5117273;28;20087;-66
2023/06/29 04:47:10;;;;;;;51.50;25.15;;;13.50;99.90;;;;;;5117373;28;20036;-66
2023/06/29 04:49:37;;;;;;;62.38;26.13;;;13.60;99.90;;;;;;5116797;28;20040;-66
2023/06/29 04:52:04;;;;;;;67.00;25.80;;;13.50;99.90;;;;;;5116956;28;20468;-66
2023/06/29 04:54:30;;;;;;;44.70;26.88;;;13.50;99.90;;;;;;5117137;28;20027;-66
2023/06/29 04:56:56;;;;;;;59.97;26.85;;;13.50;99.90;;;;;;5116854;28;20036;-66
2023/06/29 04:59:28;;;;;;;53.38;27.80;;;13.60;99.90;;;;;;5117496;28;20034;-66
2023/06/29 05:01:54;;;;;;;59.58;29.42;;;13.70;99.90;;;;;;5116850;28;20507;-66
2023/06/29 05:04:20;;;;;;;91.68;30.92;;;13.70;99.90;;;;;;5116914;28;20031;-66
2023/06/29 05:06:46;;;;;;;60.05;33.45;;;13.70;99.90;;;;;;5117077;28;20035;-66
2023/06/29 05:09:12;;;;;;;53.33;32.22;;;13.70;99.90;;;;;;5116669;28;20038;-66
2023/06/29 05:11:38;;;;;;;60.25;30.80;;;13.70;99.90;;;;;;5116638;28;20046;-66
2023/06/29 05:14:04;;;;;;;54.20;29.52;;;13.70;99.90;;;;;;5131895;27;20027;-66
2023/06/29 05:16:30;;;;;;;47.90;28.30;;;13.80;99.90;;;;;;5137186;27;20069;-66
2023/06/29 05:18:56;;;;;;;50.55;26.40;;;13.90;99.90;;;;;;5136614;27;20023;-66
2023/06/29 05:21:22;;;;;;;52.75;31.02;;;14.00;99.90;;;;;;5137733;27;20077;-66
2023/06/29 05:23:48;;;;;;;54.25;30.67;;;14.00;99.90;;;;;;5137401;27;20035;-66
2023/06/29 05:26:14;;;;;;;50.28;29.05;;;14.20;99.90;;;;;;5132426;27;20027;-66
2023/06/29 05:28:40;;;;;;;40.95;25.70;;;14.00;99.90;;;;;;5135973;27;20030;-66
2023/06/29 05:31:05;;;;;;;48.38;27.23;;;14.00;99.90;;;;;;5137272;27;20092;-66
2023/06/29 05:33:31;;;;;;;48.08;25.67;;;14.10;99.90;;;;;;5136449;27;20472;-66
2023/06/29 05:35:57;;;;;;;41.00;25.55;;;14.30;99.90;;;;;;5136860;27;20054;-66
2023/06/29 05:38:25;;;;;;;50.60;28.73;;;14.60;99.90;;;;;;5136596;27;20084;-66
2023/06/29 05:40:51;;;;;;;53.53;28.27;;;14.60;99.90;;;;;;5136327;27;20058;-66
2023/06/29 05:43:17;;;;;;;50.55;28.08;;;14.60;99.90;;;;;;5136691;27;20045;-66
2023/06/29 05:45:43;;;;;;;63.20;33.83;;;14.40;99.90;;;;;;5136474;27;20027;-66
2023/06/29 05:48:08;;;;;;;56.47;31.80;;;14.50;99.90;;;;;;5132730;27;20019;-66
2023/06/29 05:50:34;;;;;;;54.75;31.95;;;14.60;99.90;;;;;;5136406;27;20479;-66
2023/06/29 05:53:02;;;;;;;63.60;31.73;;;14.80;99.90;;;;;;5136352;27;20038;-66
2023/06/29 05:55:30;;;;;;;51.50;29.27;;;14.20;99.90;;;;;;5136001;27;20027;-66
2023/06/29 05:57:56;;;;;;;51.35;28.42;;;14.30;99.90;;;;;;5136456;27;20049;-66
2023/06/29 06:00:22;;;;;;;50.35;27.92;;;14.20;99.90;;;;;;5136645;27;20098;-66
2023/06/29 06:02:48;;;;;;;54.08;29.45;;;14.60;99.90;;;;;;5135888;27;20030;-66
2023/06/29 06:05:14;;;;;;;44.13;25.63;;;14.80;99.90;;;;;;5136173;27;20073;-66
2023/06/29 06:07:40;;;;;;;49.97;28.17;;;15.10;99.90;;;;;;5136358;27;20027;-66
2023/06/29 06:10:06;;;;;;;51.40;29.70;;;15.30;99.90;;;;;;5135483;27;20034;-66
2023/06/29 06:12:32;;;;;;;43.95;28.02;;;15.30;99.90;;;;;;5133852;27;20042;-66
2023/06/29 06:14:58;;;;;;;42.97;26.42;;;15.60;99.90;;;;;;5115153;28;20098;-66
2023/06/29 06:17:24;;;;;;;48.88;28.52;;;15.30;99.90;;;;;;5126380;27;20051;-66
2023/06/29 06:19:50;;;;;;;44.20;26.05;;;15.30;99.90;;;;;;5118022;27;20023;-66
2023/06/29 06:22:16;;;;;;;39.38;25.33;;;15.50;99.90;;;;;;5134864;27;20480;-66
2023/06/29 06:24:41;;;;;;;39.47;24.23;;;15.90;99.90;;;;;;5129526;27;20102;-66
2023/06/29 06:27:07;;;;;;;40.13;24.92;;;15.80;99.90;;;;;;5123380;27;20027;-66
2023/06/29 06:29:34;;;;;;;34.10;22.58;;;16.00;99.90;;;;;;5120041;27;20473;-66
2023/06/29 06:32:00;;;;;;;34.85;22.27;;;16.10;99.90;;;;;;5134955;27;20464;-66
2023/06/29 06:34:30;;;;;;;33.53;21.40;;;16.40;99.90;;;;;;5135728;27;20019;-66
2023/06/29 06:36:57;;;;;;;35.80;21.00;;;16.70;99.90;;;;;;5136284;27;20024;-66
2023/06/29 06:39:26;;;;;;;31.40;20.63;;;16.70;99.90;;;;;;5136305;27;20039;-66
2023/06/29 06:41:52;;;;;;;36.83;21.38;;;16.90;99.90;;;;;;5136215;27;20490;-66
2023/06/29 06:44:21;;;;;;;27.23;18.98;;;17.20;99.90;;;;;;5115547;27;20027;-66
2023/06/29 06:46:47;;;;;;;28.75;16.55;;;17.40;99.90;;;;;;5134642;27;20038;-66
2023/06/29 06:49:12;;;;;;;22.90;14.63;;;17.50;99.90;;;;;;5135941;27;20027;-66
2023/06/29 06:51:38;;;;;;;27.00;15.32;;;17.70;99.90;;;;;;5136185;27;20484;-66
2023/06/29 06:54:04;;;;;;;26.00;14.73;;;17.90;99.90;;;;;;5136190;27;20034;-66
2023/06/29 06:56:30;;;;;;;23.67;14.82;;;18.00;99.90;;;;;;5136309;27;20029;-66
2023/06/29 06:58:56;;;;;;;19.58;13.50;;;18.30;99.90;;;;;;5128610;27;20031;-66
2023/06/29 07:01:22;;;;;;;18.33;12.55;;;18.50;99.90;;;;;;5125212;27;20038;-66
2023/06/29 07:03:48;;;;;;;22.98;14.20;;;18.80;99.90;;;;;;5135293;28;20035;-67
2023/06/29 07:06:14;;;;;;;20.13;11.82;;;18.90;99.90;;;;;;5135573;28;20027;-66
2023/06/29 07:08:40;;;;;;;16.02;10.60;;;19.20;99.90;;;;;;5135162;28;20031;-66
2023/06/29 07:11:06;;;;;;;19.27;10.88;;;19.30;99.90;;;;;;5133028;28;20057;-66
2023/06/29 07:13:32;;;;;;;17.25;11.30;;;19.50;99.90;;;;;;5133529;28;20384;-66
2023/06/29 07:15:58;;;;;;;13.90;7.85;;;19.90;99.90;;;;;;5133724;28;20023;-66
2023/06/29 07:18:24;;;;;;;15.60;10.43;;;20.20;99.90;;;;;;5112016;28;20158;-66
2023/06/29 07:20:50;;;;;;;19.02;13.45;;;20.50;99.90;;;;;;5115285;28;20441;-66
2023/06/29 07:23:16;;;;;;;16.85;11.05;;;20.90;99.90;;;;;;5113897;28;20085;-66
2023/06/29 07:25:43;;;;;;;17.95;10.82;;;21.10;99.90;;;;;;5107302;28;20541;-66
2023/06/29 07:28:09;;;;;;;15.68;10.65;;;21.40;99.90;;;;;;5097877;28;20024;-66
2023/06/29 07:30:34;;;;;;;15.82;9.38;;;21.70;97.20;;;;;;5132460;28;20027;-66
2023/06/29 07:33:00;;;;;;;14.38;9.25;;;21.90;95.20;;;;;;5123760;28;20049;-66
2023/06/29 07:35:26;;;;;;;15.57;9.77;;;22.10;96.70;;;;;;5111302;28;20066;-66
2023/06/29 07:37:52;;;;;;;16.92;9.60;;;22.40;93.50;;;;;;5114111;28;20465;-66
2023/06/29 07:40:19;;;;;;;14.93;9.55;;;22.70;94.50;;;;;;5116868;28;20070;-66
2023/06/29 07:42:45;;;;;;;13.43;8.57;;;23.10;91.80;;;;;;5133518;27;20037;-66
2023/06/29 07:45:13;;;;;;;17.38;9.02;;;23.20;83.00;;;;;;5133324;27;20024;-67
2023/06/29 07:47:39;;;;;;;14.57;8.75;;;23.40;86.50;;;;;;5103212;27;20031;-66
2023/06/29 07:50:06;;;;;;;11.13;6.80;;;23.50;90.00;;;;;;5117459;28;20469;-66
2023/06/29 07:52:32;;;;;;;12.80;7.68;;;23.80;87.50;;;;;;5117276;28;20103;-67
2023/06/29 07:54:58;;;;;;;13.48;8.68;;;24.10;89.40;;;;;;5115366;28;20057;-66
2023/06/29 07:57:24;;;;;;;11.80;7.03;;;24.30;83.90;;;;;;5106708;27;20098;-66
2023/06/29 07:59:49;;;;;;;10.27;6.85;;;24.40;76.20;;;;;;5121562;27;20090;-67
2023/06/29 08:02:15;;;;;;;9.13;6.10;;;24.40;80.10;;;;;;5118698;28;20115;-66
2023/06/29 08:04:41;;;;;;;12.13;6.75;;;24.30;74.90;;;;;;5110269;28;20042;-67
2023/06/29 08:07:08;;;;;;;9.32;6.38;;;24.00;77.00;;;;;;5097490;28;20424;-67
2023/06/29 08:09:33;;;;;;;15.25;6.82;;;23.60;78.90;;;;;;5100596;27;20051;-67
2023/06/29 08:12:05;;;;;;;10.98;6.32;;;23.80;77.00;;;;;;5123768;27;20024;-67
2023/06/29 08:14:32;;;;;;;13.30;6.75;;;24.40;74.60;;;;;;5117801;28;20058;-67
2023/06/29 08:16:58;;;;;;;13.50;6.40;;;24.90;75.50;;;;;;5117318;28;20036;-67
2023/06/29 08:19:24;;;;;;;8.15;4.85;;;25.20;73.60;;;;;;5115904;28;20039;-67
2023/06/29 08:21:55;;;;;;;10.13;5.28;;;25.50;67.90;;;;;;5117591;28;20023;-67
2023/06/29 08:24:21;;;;;;;10.45;5.30;;;25.60;68.20;;;;;;5117163;28;20101;-67
2023/06/29 08:26:47;;;;;;;8.35;5.15;;;25.80;65.00;;;;;;5117537;28;20032;-67
2023/06/29 08:29:13;;;;;;;9.18;5.43;;;25.90;64.20;;;;;;5117374;28;20049;-67
2023/06/29 08:31:42;;;;;;;10.48;5.70;;;25.90;62.10;;;;;;5117175;28;20114;-67
2023/06/29 08:34:07;;;;;;;6.90;4.90;;;25.60;64.30;;;;;;5117383;28;20035;-67
2023/06/29 08:36:34;;;;;;;14.43;4.82;;;26.00;68.70;;;;;;5116328;28;20032;-67
2023/06/29 08:39:00;;;;;;;8.38;4.18;;;26.30;69.90;;;;;;5109467;28;20031;-67
2023/06/29 08:41:25;;;;;;;8.40;5.13;;;26.40;62.20;;;;;;5101838;28;20078;-67
2023/06/29 08:43:51;;;;;;;6.90;4.53;;;26.60;65.20;;;;;;5112167;28;20059;-67
2023/06/29 08:46:17;;;;;;;7.28;4.30;;;27.00;60.70;;;;;;5133147;27;20085;-67
2023/06/29 08:48:44;;;;;;;4.40;3.20;;;27.30;63.80;;;;;;5125794;27;20035;-67
2023/06/29 08:51:13;;;;;;;6.35;3.60;;;27.20;54.70;;;;;;5098294;28;20424;-68
2023/06/29 08:53:43;;;;;;;5.80;3.85;;;27.30;61.40;;;;;;5117545;28;20031;-67
2023/06/29 08:56:10;;;;;;;6.28;3.53;;;27.30;58.00;;;;;;5117464;28;20027;-67
2023/06/29 08:58:36;;;;;;;6.55;3.28;;;27.60;56.30;;;;;;5117418;28;20049;-68
2023/06/29 09:01:03;;;;;;;4.13;3.20;;;27.10;57.30;;;;;;5116484;28;20396;-67
2023/06/29 09:03:29;;;;;;;4.60;2.80;;;27.40;59.20;;;;;;5117097;28;20049;-67
2023/06/29 09:05:55;;;;;;;4.90;3.58;;;27.80;53.20;;;;;;5116735;28;20059;-68
2023/06/29 09:08:23;;;;;;;3.72;3.33;;;27.90;55.90;;;;;;5116649;28;20023;-68
2023/06/29 09:10:49;;;;;;;5.55;3.17;;;28.00;52.60;;;;;;5116473;28;20035;-68
2023/06/29 09:13:15;;;;;;;5.90;3.50;;;27.70;53.90;;;;;;5116526;28;20027;-68
2023/06/29 09:15:41;;;;;;;5.57;3.58;;;28.00;53.90;;;;;;5108266;28;20066;-68
2023/06/29 09:18:07;;;;;;;5.05;3.50;;;28.30;54.50;;;;;;5114626;28;20502;-68
2023/06/29 09:20:36;;;;;;;4.63;3.05;;;28.40;49.60;;;;;;5116554;28;20038;-68
2023/06/29 09:23:06;;;;;;;4.40;3.03;;;28.00;51.40;;;;;;5144721;27;20083;-68
2023/06/29 09:25:38;;;;;;;3.78;3.13;;;28.30;56.20;;;;;;5157013;27;20034;-68
2023/06/29 09:28:07;;;;;;;4.90;3.50;;;28.50;52.70;;;;;;5156923;27;20038;-68
2023/06/29 09:30:38;;;;;;;6.72;3.35;;;28.80;49.50;;;;;;5156628;27;20027;-68
2023/06/29 09:33:06;;;;;;;6.72;3.78;;;28.70;48.60;;;;;;5156927;27;20050;-68
2023/06/29 09:35:32;;;;;;;6.47;3.70;;;28.50;50.80;;;;;;5134882;27;20071;-66
2023/06/29 09:38:03;;;;;;;7.97;4.32;;;29.00;49.70;;;;;;5118351;27;20106;-67
2023/06/29 09:40:30;;;;;;;8.02;4.00;;;28.20;49.40;;;;;;5115921;28;20186;-68
2023/06/29 09:42:56;;;;;;;5.43;3.53;;;28.90;52.50;;;;;;5115845;28;20124;-67
2023/06/29 09:45:22;;;;;;;7.05;3.90;;;29.40;48.50;;;;;;5129311;27;20031;-68
2023/06/29 09:47:49;;;;;;;8.10;3.55;;;29.00;48.40;;;;;;5132030;27;20086;-67
2023/06/29 09:50:19;;;;;;;8.32;4.40;;;29.10;47.70;;;;;;5115475;28;20031;-67
2023/06/29 09:52:47;;;;;;;7.85;4.18;;;29.50;45.30;;;;;;5097387;28;20028;-67
2023/06/29 09:55:14;;;;;;;7.95;4.20;;;29.50;42.90;;;;;;5115884;27;20027;-67
2023/06/29 09:57:42;;;;;;;14.43;4.10;;;29.30;46.00;;;;;;5126713;27;20030;-67
2023/06/29 10:00:11;;;;;;;8.75;4.93;;;27.80;42.80;;;;;;5115354;28;20070;-68
2023/06/29 10:02:42;;;;;;;9.75;5.25;;;28.70;43.80;;;;;;5113782;27;20035;-67
2023/06/29 10:05:09;;;;;;;10.45;5.63;;;28.60;44.00;;;;;;5135518;27;20054;-68
2023/06/29 10:07:36;;;;;;;11.48;5.47;;;28.80;44.00;;;;;;5148939;27;20537;-67
2023/06/29 10:10:07;;;;;;;10.40;5.10;;;29.30;43.20;;;;;;5130391;27;20118;-67
2023/06/29 10:12:33;;;;;;;;;;;28.70;41.30;;;;;;5135579;27;20327;-67
2023/06/29 10:15:08;;;;;;;9.48;4.47;;;29.10;42.80;;;;;;5133574;27;19911;-68
2023/06/29 10:17:46;;;;;;;12.40;6.07;;;29.00;40.40;;;;;;5124224;27;20040;-67
2023/06/29 10:20:14;;;;;;;10.23;6.03;;;29.70;41.50;;;;;;5156753;27;20444;-67
2023/06/29 10:22:41;;;;;;;10.93;5.15;;;29.60;41.40;;;;;;5152044;27;20084;-67
2023/06/29 10:25:12;;;;;;;11.18;5.28;;;29.80;37.90;;;;;;5133166;27;20038;-67
2023/06/29 10:27:39;;;;;;;12.30;4.93;;;29.50;38.20;;;;;;5135892;27;20023;-67
2023/06/29 10:30:05;;;;;;;11.52;4.68;;;29.10;36.10;;;;;;5127793;27;20270;-67
2023/06/29 10:32:37;;;;;;;10.55;4.05;;;28.50;36.30;;;;;;5120797;27;20034;-67
2023/06/29 10:35:05;;;;;;;8.18;4.30;;;29.20;38.60;;;;;;5115148;28;20058;-67
2023/06/29 10:37:36;;;;;;;13.75;4.57;;;29.80;37.40;;;;;;5144328;27;20057;-67
2023/06/29 10:40:07;;;;;;;8.35;4.53;;;30.00;40.80;;;;;;5135178;27;20031;-67
2023/06/29 10:42:39;;;;;;;12.05;4.78;;;30.10;37.20;;;;;;5135440;27;20466;-68
2023/06/29 10:45:20;;;;;;;8.52;4.57;;;30.40;36.10;;;;;;5133057;27;20469;-67
2023/06/29 10:48:16;;;;;;;10.85;4.82;;;30.40;38.90;;;;;;5142802;27;20026;-68
2023/06/29 10:50:50;;;;;;;8.27;4.05;;;29.00;34.20;;;;;;5134495;27;20118;-67
2023/06/29 10:53:17;;;;;;;7.82;4.25;;;28.20;38.70;;;;;;5135465;27;20055;-68
2023/06/29 10:55:51;;;;;;;8.95;4.05;;;29.00;38.30;;;;;;5134466;27;20019;-68
2023/06/29 10:58:24;;;;;;;10.07;4.45;;;28.60;37.60;;;;;;5135169;27;20043;-68
2023/06/29 11:00:51;;;;;;;12.00;4.63;;;29.60;39.40;;;;;;5135192;27;20060;-67
2023/06/29 11:03:19;;;;;;;12.90;3.97;;;28.90;37.80;;;;;;5135104;27;20110;-68
2023/06/29 11:05:52;;;;;;;10.07;4.13;;;28.90;36.40;;;;;;5135250;28;20027;-67
2023/06/29 11:08:21;;;;;;;9.98;4.55;;;29.30;37.00;;;;;;5131440;28;20034;-68
2023/06/29 11:10:47;;;;;;;14.90;5.55;;;27.90;39.70;;;;;;5123099;28;20032;-67
2023/06/29 11:13:13;;;;;;;10.65;4.38;;;27.70;40.20;;;;;;5096330;28;20089;-68
2023/06/29 11:15:39;;;;;;;7.68;3.70;;;29.00;44.30;;;;;;5119832;27;20155;-67
2023/06/29 11:18:08;;;;;;;11.50;4.40;;;29.50;44.20;;;;;;5158404;27;20039;-68
2023/06/29 11:20:37;;;;;;;10.73;4.35;;;29.40;39.90;;;;;;5143697;27;20408;-68
2023/06/29 11:23:04;;;;;;;7.30;3.88;;;30.30;40.90;;;;;;5126362;27;20031;-68
2023/06/29 11:25:30;;;;;;;8.45;3.80;;;31.10;40.30;;;;;;5125783;27;20019;-67
2023/06/29 11:27:58;;;;;;;8.18;3.97;;;31.50;37.00;;;;;;5136226;27;20024;-68
2023/06/29 11:30:25;;;;;;;6.03;3.55;;;31.40;40.70;;;;;;5138183;27;20019;-68
2023/06/29 11:32:52;;;;;;;11.23;6.03;;;31.70;35.50;;;;;;5135494;27;20042;-68
2023/06/29 11:35:22;;;;;;;5.70;3.22;;;31.50;33.20;;;;;;5138024;27;20022;-68
2023/06/29 11:38:00;;;;;;;8.88;4.20;;;31.10;33.00;;;;;;5139315;27;20031;-68
2023/06/29 11:40:27;;;;;;;6.80;3.53;;;31.40;36.80;;;;;;5139130;27;20035;-67
2023/06/29 11:42:54;;;;;;;6.40;3.55;;;31.20;34.70;;;;;;5137795;27;20027;-67
2023/06/29 11:45:21;;;;;;;6.75;3.45;;;31.60;35.80;;;;;;5136446;27;20026;-67
2023/06/29 11:47:54;;;;;;;10.68;3.45;;;31.90;36.80;;;;;;5138459;27;20047;-68
2023/06/29 11:50:20;;;;;;;14.68;4.88;;;31.80;36.80;;;;;;5137648;27;20062;-67
2023/06/29 11:52:47;;;;;;;11.98;4.78;;;31.50;38.40;;;;;;5135512;27;20027;-68
2023/06/29 11:55:15;;;;;;;8.55;3.80;;;31.60;34.40;;;;;;5136066;27;20098;-67
2023/06/29 11:57:47;;;;;;;8.57;3.70;;;31.80;33.90;;;;;;5138056;27;20023;-69
2023/06/29 12:00:16;;;;;;;9.25;4.15;;;31.80;37.80;;;;;;5129306;27;20028;-68
2023/06/29 12:02:44;;;;;;;8.93;3.83;;;32.40;36.90;;;;;;5123802;27;20077;-68
2023/06/29 12:05:10;;;;;;;9.65;4.20;;;32.10;35.90;;;;;;5138473;27;20027;-68
2023/06/29 12:07:41;;;;;;;6.93;3.67;;;32.40;34.60;;;;;;5138516;27;20031;-68
2023/06/29 12:10:08;;;;;;;7.18;3.20;;;30.70;33.20;;;;;;5138284;27;20070;-68
2023/06/29 12:12:36;;;;;;;7.82;4.32;;;30.80;36.80;;;;;;5138086;27;20471;-68
2023/06/29 12:15:15;;;;;;;7.97;4.18;;;31.30;34.70;;;;;;5137461;27;20106;-69
2023/06/29 12:17:50;;;;;;;10.20;4.03;;;31.10;35.50;;;;;;5122066;27;20036;-67
2023/06/29 12:20:37;;;;;;;7.35;4.05;;;29.70;33.60;;;;;;5116634;28;20100;-68
2023/06/29 12:23:09;;;;;;;11.75;4.07;;;30.60;35.60;;;;;;5111982;27;20055;-67
2023/06/29 12:25:44;;;;;;;12.70;3.88;;;30.70;33.40;;;;;;5116287;27;20390;-67
2023/06/29 12:28:10;;;;;;;9.00;4.35;;;29.80;35.60;;;;;;5114361;28;20031;-67
2023/06/29 12:30:36;;;;;;;8.63;3.55;;;30.80;38.90;;;;;;5116985;28;20057;-68
2023/06/29 12:33:02;;;;;;;7.15;3.25;;;31.00;37.40;;;;;;5116598;28;20378;-67